Time;durP1;ratioP1;P1;durP2;ratioP2;P2;SDS_P1;SDS_P2;PMS_P1;PMS_P2;Temp;Humidity;BMP_temperature;BMP_pressure;BME280_temperature;BME280_humidity;BME280_pressure;Samples;Min_cycle;Max_cycle;Signal;HPM_P1;HPM_P2
2023/10/23 00:00:46;;;;;;;6.70;3.85;;;7.60;99.90;;;;;;5016111;28;20038;-65
2023/10/23 00:03:11;;;;;;;7.80;4.18;;;7.60;99.90;;;;;;5033450;28;20072;-65
2023/10/23 00:05:37;;;;;;;9.77;4.03;;;7.70;99.90;;;;;;5016571;28;20080;-65
2023/10/23 00:08:03;;;;;;;7.15;3.88;;;7.60;99.90;;;;;;5047508;28;20072;-65
2023/10/23 00:10:29;;;;;;;7.97;3.97;;;7.60;99.90;;;;;;5053096;28;20037;-66
2023/10/23 00:12:55;;;;;;;6.35;3.83;;;7.60;99.90;;;;;;5053719;28;20041;-65
2023/10/23 00:15:26;;;;;;;6.28;3.50;;;7.60;99.90;;;;;;5016396;28;20037;-65
2023/10/23 00:17:57;;;;;;;7.00;3.88;;;7.60;99.90;;;;;;5015028;28;20033;-65
2023/10/23 00:20:23;;;;;;;8.80;4.63;;;7.60;99.90;;;;;;5016311;28;20044;-65
2023/10/23 00:22:48;;;;;;;7.13;4.07;;;7.60;99.90;;;;;;5033875;28;20395;-65
2023/10/23 00:25:14;;;;;;;8.43;4.75;;;7.60;99.90;;;;;;5033086;28;20397;-65
2023/10/23 00:27:40;;;;;;;6.90;3.92;;;7.60;99.90;;;;;;5015581;28;20451;-65
2023/10/23 00:30:06;;;;;;;6.68;4.32;;;7.60;99.90;;;;;;5033547;28;20116;-65
2023/10/23 00:32:32;;;;;;;6.97;4.45;;;7.60;99.90;;;;;;5031946;28;20040;-65
2023/10/23 00:34:57;;;;;;;7.85;4.20;;;7.60;99.90;;;;;;5035475;28;20119;-65
2023/10/23 00:37:23;;;;;;;9.07;4.65;;;7.60;99.90;;;;;;5053675;28;20209;-65
2023/10/23 00:39:48;;;;;;;7.15;4.85;;;7.60;99.90;;;;;;5052161;28;20083;-65
2023/10/23 00:42:14;;;;;;;7.72;4.55;;;7.60;99.90;;;;;;5035667;28;20120;-65
2023/10/23 00:44:40;;;;;;;7.65;4.93;;;7.60;99.90;;;;;;5035136;28;20045;-65
2023/10/23 00:47:05;;;;;;;8.35;4.88;;;7.60;99.90;;;;;;5035172;28;20436;-65
2023/10/23 00:49:32;;;;;;;9.73;4.80;;;7.60;99.90;;;;;;5035064;28;20481;-65
2023/10/23 00:51:58;;;;;;;7.85;4.63;;;7.60;99.90;;;;;;5034533;28;20056;-65
2023/10/23 00:54:24;;;;;;;8.73;4.47;;;7.60;99.90;;;;;;5034858;28;20083;-65
2023/10/23 00:56:50;;;;;;;9.05;5.10;;;7.60;99.90;;;;;;5035213;28;20056;-65
2023/10/23 00:59:16;;;;;;;8.65;4.88;;;7.50;99.90;;;;;;5034589;28;20048;-65
2023/10/23 01:01:44;;;;;;;7.78;5.07;;;7.60;99.90;;;;;;5034304;28;20041;-65
2023/10/23 01:04:10;;;;;;;7.25;4.75;;;7.50;99.90;;;;;;5035256;28;20051;-65
2023/10/23 01:06:36;;;;;;;6.03;4.00;;;7.50;99.90;;;;;;5051383;28;20072;-66
2023/10/23 01:09:03;;;;;;;8.07;5.00;;;7.50;99.90;;;;;;5048616;28;20486;-65
2023/10/23 01:11:28;;;;;;;6.18;4.03;;;7.40;99.90;;;;;;5014918;28;20634;-65
2023/10/23 01:13:54;;;;;;;7.50;4.15;;;7.40;99.90;;;;;;5032099;28;20132;-65
2023/10/23 01:16:19;;;;;;;7.10;4.63;;;7.30;99.90;;;;;;4998997;28;20095;-65
2023/10/23 01:18:45;;;;;;;8.30;5.38;;;7.30;99.90;;;;;;5044635;28;20079;-65
2023/10/23 01:21:11;;;;;;;8.02;4.57;;;7.30;99.90;;;;;;5017672;28;20048;-65
2023/10/23 01:23:36;;;;;;;10.05;5.90;;;7.30;99.90;;;;;;5034675;28;20056;-65
2023/10/23 01:26:03;;;;;;;8.13;5.05;;;7.30;99.90;;;;;;5052841;28;20072;-64
2023/10/23 01:28:29;;;;;;;7.75;5.20;;;7.30;99.90;;;;;;5051514;28;20432;-65
2023/10/23 01:30:54;;;;;;;9.57;5.82;;;7.20;99.90;;;;;;5047107;28;20037;-65
2023/10/23 01:33:20;;;;;;;9.90;5.13;;;7.20;99.90;;;;;;5014981;28;20045;-65
2023/10/23 01:35:45;;;;;;;8.50;5.40;;;7.20;99.90;;;;;;5025061;28;20490;-65
2023/10/23 01:38:13;;;;;;;8.13;5.18;;;7.20;99.90;;;;;;5052305;28;20048;-64
2023/10/23 01:40:39;;;;;;;9.52;5.28;;;7.20;99.90;;;;;;5033870;28;20044;-64
2023/10/23 01:43:04;;;;;;;7.97;5.07;;;7.20;99.90;;;;;;5033757;28;20390;-65
2023/10/23 01:45:30;;;;;;;8.63;5.60;;;7.20;99.90;;;;;;5015922;28;20676;-64
2023/10/23 01:47:55;;;;;;;8.07;5.68;;;7.20;99.90;;;;;;5034466;28;20049;-64
2023/10/23 01:50:21;;;;;;;8.63;5.38;;;7.30;99.90;;;;;;5033566;28;20040;-64
2023/10/23 01:52:47;;;;;;;9.73;6.15;;;7.30;99.90;;;;;;5033214;28;20172;-65
2023/10/23 01:55:13;;;;;;;8.32;5.60;;;7.30;99.90;;;;;;5051435;28;20400;-65
2023/10/23 01:57:38;;;;;;;9.55;6.68;;;7.30;99.90;;;;;;5033846;28;20115;-65
2023/10/23 02:00:05;;;;;;;8.90;5.82;;;7.40;99.90;;;;;;5034326;28;20045;-65
2023/10/23 02:02:33;;;;;;;10.48;5.50;;;7.40;99.90;;;;;;5032768;28;20124;-65
2023/10/23 02:05:00;;;;;;;11.27;6.75;;;7.40;99.90;;;;;;5033920;28;20035;-65
2023/10/23 02:07:27;;;;;;;9.35;5.97;;;7.40;99.90;;;;;;5033810;28;20037;-65
2023/10/23 02:09:53;;;;;;;11.85;6.05;;;7.40;99.90;;;;;;5051040;28;20037;-65
2023/10/23 02:12:19;;;;;;;9.30;6.47;;;7.40;99.90;;;;;;5052105;28;20033;-65
2023/10/23 02:14:44;;;;;;;9.52;6.30;;;7.40;99.90;;;;;;5051423;28;20383;-65
2023/10/23 02:17:10;;;;;;;9.65;5.95;;;7.50;99.90;;;;;;5033308;28;20033;-65
2023/10/23 02:19:37;;;;;;;9.27;6.45;;;7.40;99.90;;;;;;5033709;28;20033;-65
2023/10/23 02:22:03;;;;;;;11.50;6.18;;;7.30;99.90;;;;;;5051840;28;20036;-64
2023/10/23 02:24:28;;;;;;;8.57;5.85;;;7.40;99.90;;;;;;5050707;28;20052;-64
2023/10/23 02:26:54;;;;;;;10.27;5.70;;;7.40;99.90;;;;;;5017226;28;20045;-64
2023/10/23 02:29:20;;;;;;;8.68;5.90;;;7.40;99.90;;;;;;5017705;28;20066;-64
2023/10/23 02:31:45;;;;;;;7.85;5.70;;;7.40;99.90;;;;;;5027740;28;20076;-64
2023/10/23 02:34:11;;;;;;;11.23;7.50;;;7.30;99.90;;;;;;5051693;28;20477;-64
2023/10/23 02:36:37;;;;;;;8.40;5.78;;;7.30;99.90;;;;;;5050575;28;20037;-64
2023/10/23 02:39:03;;;;;;;8.48;5.70;;;7.20;99.90;;;;;;5032909;28;20049;-64
2023/10/23 02:41:30;;;;;;;9.25;5.80;;;7.20;99.90;;;;;;5052150;28;20045;-64
2023/10/23 02:43:56;;;;;;;11.35;6.55;;;7.20;99.90;;;;;;5037728;28;20464;-64
2023/10/23 02:46:21;;;;;;;10.55;6.20;;;7.20;99.90;;;;;;5037150;28;20045;-64
2023/10/23 02:48:47;;;;;;;8.40;5.20;;;7.20;99.90;;;;;;5055004;28;20132;-64
2023/10/23 02:51:13;;;;;;;8.77;6.15;;;7.20;99.90;;;;;;5037521;28;20402;-64
2023/10/23 02:53:38;;;;;;;11.18;6.75;;;7.10;99.90;;;;;;5036403;28;20107;-65
2023/10/23 02:56:10;;;;;;;8.48;5.90;;;7.10;99.90;;;;;;5037606;28;20037;-65
2023/10/23 02:58:36;;;;;;;11.05;7.82;;;7.10;99.90;;;;;;5054234;28;20051;-65
2023/10/23 03:01:02;;;;;;;11.40;6.68;;;7.10;99.90;;;;;;5037210;28;20033;-65
2023/10/23 03:03:28;;;;;;;13.32;6.97;;;7.10;99.90;;;;;;5055024;28;20048;-64
2023/10/23 03:05:54;;;;;;;10.27;6.60;;;7.00;99.90;;;;;;5031237;28;20478;-64
2023/10/23 03:08:20;;;;;;;10.27;6.45;;;7.00;99.90;;;;;;5017604;28;20099;-64
2023/10/23 03:10:45;;;;;;;10.38;6.63;;;7.00;99.90;;;;;;5000632;28;20084;-65
2023/10/23 03:13:11;;;;;;;10.63;7.03;;;7.00;99.90;;;;;;5034533;28;20044;-65
2023/10/23 03:15:37;;;;;;;10.85;7.80;;;7.10;99.90;;;;;;5036650;28;20107;-65
2023/10/23 03:18:04;;;;;;;11.35;7.50;;;7.10;99.90;;;;;;5037398;28;20037;-64
2023/10/23 03:20:30;;;;;;;10.57;7.25;;;7.10;99.90;;;;;;5036302;28;20410;-65
2023/10/23 03:22:56;;;;;;;10.57;7.75;;;7.20;99.90;;;;;;5037143;28;20052;-65
2023/10/23 03:25:21;;;;;;;12.45;8.35;;;7.20;99.90;;;;;;5055057;28;20041;-64
2023/10/23 03:27:52;;;;;;;10.80;6.72;;;7.20;99.90;;;;;;5053707;28;20045;-64
2023/10/23 03:30:18;;;;;;;12.13;7.38;;;7.20;99.90;;;;;;5037135;28;20052;-64
2023/10/23 03:32:44;;;;;;;11.95;8.07;;;7.20;99.90;;;;;;5017072;28;20124;-64
2023/10/23 03:35:09;;;;;;;9.70;6.88;;;7.20;99.90;;;;;;5016741;28;20175;-64
2023/10/23 03:37:35;;;;;;;11.73;7.85;;;7.20;99.90;;;;;;5016808;28;20083;-65
2023/10/23 03:40:01;;;;;;;12.60;8.25;;;7.20;99.90;;;;;;5034923;28;20537;-65
2023/10/23 03:42:26;;;;;;;10.07;7.30;;;7.20;99.90;;;;;;5033535;28;20037;-65
2023/10/23 03:44:52;;;;;;;12.10;7.70;;;7.20;99.90;;;;;;5034492;28;20499;-65
2023/10/23 03:47:21;;;;;;;11.60;7.55;;;7.20;99.90;;;;;;5045463;28;20041;-64
2023/10/23 03:49:47;;;;;;;11.88;7.70;;;7.20;99.90;;;;;;5018720;28;20123;-64
2023/10/23 03:52:13;;;;;;;9.63;6.53;;;7.20;99.90;;;;;;5050865;28;20038;-64
2023/10/23 03:54:39;;;;;;;10.23;6.72;;;7.10;99.90;;;;;;5014364;28;20469;-64
2023/10/23 03:57:04;;;;;;;10.57;7.57;;;7.10;99.90;;;;;;5016866;28;20080;-64
2023/10/23 03:59:30;;;;;;;10.40;7.15;;;7.20;99.90;;;;;;5016301;28;20037;-64
2023/10/23 04:01:56;;;;;;;9.70;6.78;;;7.10;99.90;;;;;;5033485;28;20043;-64
2023/10/23 04:04:22;;;;;;;10.27;6.75;;;7.10;99.90;;;;;;5037578;28;20084;-64
2023/10/23 04:06:47;;;;;;;9.52;6.80;;;7.00;99.90;;;;;;5053774;28;20043;-64
2023/10/23 04:09:13;;;;;;;8.45;6.15;;;6.90;99.90;;;;;;5035662;28;20124;-64
2023/10/23 04:11:38;;;;;;;12.10;7.88;;;6.90;99.90;;;;;;5035768;28;20458;-64
2023/10/23 04:14:04;;;;;;;13.05;7.60;;;6.90;99.90;;;;;;5036144;28;20045;-65
2023/10/23 04:16:30;;;;;;;10.80;7.47;;;6.90;99.90;;;;;;5034815;28;20136;-65
2023/10/23 04:18:55;;;;;;;11.85;8.18;;;6.80;99.90;;;;;;5036105;28;20401;-67
2023/10/23 04:21:21;;;;;;;12.15;8.35;;;6.80;99.90;;;;;;5036234;28;20158;-68
2023/10/23 04:23:47;;;;;;;11.13;7.38;;;6.70;99.90;;;;;;5034727;28;20552;-67
2023/10/23 04:26:13;;;;;;;10.13;6.70;;;6.70;99.90;;;;;;5036190;28;20079;-67
2023/10/23 04:28:38;;;;;;;8.77;5.57;;;6.70;99.90;;;;;;5053263;28;20474;-67
2023/10/23 04:31:04;;;;;;;9.43;6.85;;;6.80;99.90;;;;;;5034911;28;20083;-67
2023/10/23 04:33:29;;;;;;;11.20;7.35;;;6.70;99.90;;;;;;5035234;28;20053;-67
2023/10/23 04:35:57;;;;;;;13.32;7.00;;;6.80;99.90;;;;;;5024185;28;20550;-67
2023/10/23 04:38:26;;;;;;;11.32;6.78;;;6.80;99.90;;;;;;5031630;28;20042;-67
2023/10/23 04:40:55;;;;;;;7.88;5.22;;;6.70;99.90;;;;;;5048732;28;20044;-67
2023/10/23 04:43:21;;;;;;;10.93;6.32;;;6.70;99.90;;;;;;5016118;28;20041;-67
2023/10/23 04:45:48;;;;;;;8.55;6.32;;;6.60;99.90;;;;;;5047320;28;20047;-67
2023/10/23 04:48:14;;;;;;;9.80;5.72;;;6.70;99.90;;;;;;5032294;28;20038;-67
2023/10/23 04:50:39;;;;;;;9.68;6.53;;;6.60;99.90;;;;;;5032669;28;20548;-67
2023/10/23 04:53:06;;;;;;;14.27;8.43;;;6.60;99.90;;;;;;5014851;28;20088;-67
2023/10/23 04:55:38;;;;;;;9.77;7.35;;;6.60;99.90;;;;;;5027358;28;20040;-67
2023/10/23 04:58:05;;;;;;;11.48;6.80;;;6.50;99.90;;;;;;5034608;28;20041;-67
2023/10/23 05:00:37;;;;;;;10.70;8.23;;;6.50;99.90;;;;;;5034203;28;20033;-67
2023/10/23 05:03:04;;;;;;;10.82;7.55;;;6.50;99.90;;;;;;5015765;28;20081;-67
2023/10/23 05:05:33;;;;;;;8.95;5.80;;;6.50;99.90;;;;;;5032106;28;20038;-67
2023/10/23 05:07:59;;;;;;;8.60;5.72;;;6.40;99.90;;;;;;5015697;28;20088;-67
2023/10/23 05:10:24;;;;;;;11.60;7.25;;;6.50;99.90;;;;;;5032727;28;20073;-65
2023/10/23 05:12:50;;;;;;;11.23;8.10;;;6.40;99.90;;;;;;5014119;28;20045;-65
2023/10/23 05:15:17;;;;;;;11.77;7.57;;;6.50;99.90;;;;;;5016279;28;20061;-65
2023/10/23 05:17:43;;;;;;;10.82;7.22;;;6.50;99.90;;;;;;5014589;28;20049;-65
2023/10/23 05:20:09;;;;;;;9.73;6.55;;;6.40;99.90;;;;;;5014404;28;20045;-65
2023/10/23 05:22:35;;;;;;;10.85;6.15;;;6.40;99.90;;;;;;5047869;28;20038;-65
2023/10/23 05:25:01;;;;;;;9.02;5.63;;;6.40;99.90;;;;;;5048163;28;20040;-65
2023/10/23 05:27:26;;;;;;;10.88;6.90;;;6.30;99.90;;;;;;5014133;28;20046;-65
2023/10/23 05:29:52;;;;;;;13.77;7.82;;;6.40;99.90;;;;;;5014863;28;20075;-64
2023/10/23 05:32:18;;;;;;;12.52;6.97;;;6.30;99.90;;;;;;5029465;28;20135;-64
2023/10/23 05:34:44;;;;;;;10.35;7.18;;;6.30;99.90;;;;;;5033210;28;20132;-65
2023/10/23 05:37:10;;;;;;;12.65;8.45;;;6.40;99.90;;;;;;5034918;28;20390;-65
2023/10/23 05:39:36;;;;;;;10.68;7.25;;;6.40;99.90;;;;;;5051861;28;20033;-65
2023/10/23 05:42:02;;;;;;;12.10;8.20;;;6.40;99.90;;;;;;5033760;28;20448;-64
2023/10/23 05:44:27;;;;;;;13.75;8.30;;;6.40;99.90;;;;;;5017411;28;20409;-64
2023/10/23 05:46:53;;;;;;;12.85;9.40;;;6.40;99.90;;;;;;5034313;28;20045;-64
2023/10/23 05:49:19;;;;;;;13.15;9.30;;;6.40;99.90;;;;;;5033399;28;20056;-64
2023/10/23 05:51:45;;;;;;;13.30;8.82;;;6.30;99.90;;;;;;5020859;28;20056;-64
2023/10/23 05:54:10;;;;;;;12.48;8.80;;;6.30;99.90;;;;;;5014040;28;20454;-64
2023/10/23 05:56:36;;;;;;;12.52;8.90;;;6.20;99.90;;;;;;5013605;28;20120;-64
2023/10/23 05:59:03;;;;;;;14.68;9.38;;;6.20;99.90;;;;;;5014657;28;20037;-64
2023/10/23 06:01:29;;;;;;;12.90;8.90;;;6.20;99.90;;;;;;5004942;28;20045;-64
2023/10/23 06:03:55;;;;;;;12.73;9.05;;;6.30;99.90;;;;;;5012456;28;20052;-64
2023/10/23 06:06:21;;;;;;;12.85;9.20;;;6.30;99.90;;;;;;5001232;28;20048;-64
2023/10/23 06:08:46;;;;;;;15.27;9.60;;;6.20;99.90;;;;;;4993890;28;20045;-64
2023/10/23 06:11:13;;;;;;;13.48;10.18;;;6.30;99.90;;;;;;5012741;28;20053;-64
2023/10/23 06:13:39;;;;;;;13.98;10.35;;;6.30;99.90;;;;;;5031273;28;20056;-64
2023/10/23 06:16:05;;;;;;;14.95;9.45;;;6.30;99.90;;;;;;5031002;28;20041;-64
2023/10/23 06:18:35;;;;;;;15.88;10.20;;;6.30;99.90;;;;;;5013041;28;20068;-64
2023/10/23 06:21:05;;;;;;;13.73;9.45;;;6.30;99.90;;;;;;4978469;28;20115;-64
2023/10/23 06:23:40;;;;;;;13.88;9.48;;;6.30;99.90;;;;;;4993549;28;20100;-67
2023/10/23 06:26:07;;;;;;;13.30;9.10;;;6.40;99.90;;;;;;5012596;28;20050;-67
2023/10/23 06:28:34;;;;;;;11.68;8.23;;;6.40;99.90;;;;;;4994223;28;20422;-67
2023/10/23 06:31:07;;;;;;;10.88;7.60;;;6.30;99.90;;;;;;4993700;28;20049;-67
2023/10/23 06:33:34;;;;;;;12.18;8.73;;;6.40;99.90;;;;;;4985892;28;20053;-67
2023/10/23 06:36:00;;;;;;;12.00;7.78;;;6.50;99.90;;;;;;4994953;28;20539;-67
2023/10/23 06:38:26;;;;;;;11.65;7.93;;;6.50;99.90;;;;;;5003087;28;20120;-67
2023/10/23 06:40:52;;;;;;;9.82;7.63;;;6.40;99.90;;;;;;4996445;28;20115;-65
2023/10/23 06:43:17;;;;;;;11.10;6.95;;;6.50;99.90;;;;;;5009093;28;20124;-66
2023/10/23 06:45:43;;;;;;;12.93;8.70;;;6.40;99.90;;;;;;5003252;28;20192;-66
2023/10/23 06:48:09;;;;;;;12.63;9.13;;;6.40;99.90;;;;;;4995617;28;20042;-65
2023/10/23 06:50:35;;;;;;;13.63;9.38;;;6.40;99.90;;;;;;5007418;28;20406;-62
2023/10/23 06:53:01;;;;;;;15.38;10.77;;;6.50;99.90;;;;;;5046178;28;20045;-65
2023/10/23 06:55:27;;;;;;;17.20;11.43;;;6.50;99.90;;;;;;5044341;28;20045;-63
2023/10/23 06:57:54;;;;;;;17.73;12.50;;;6.60;99.90;;;;;;5011006;28;20474;-63
2023/10/23 07:00:20;;;;;;;18.13;11.55;;;6.60;99.90;;;;;;5011862;28;20453;-64
2023/10/23 07:02:49;;;;;;;16.20;9.90;;;6.60;99.90;;;;;;5045684;28;20041;-64
2023/10/23 07:05:15;;;;;;;14.23;9.18;;;6.60;99.90;;;;;;5012511;28;20051;-61
2023/10/23 07:07:40;;;;;;;13.32;9.07;;;6.50;99.90;;;;;;5010023;28;20490;-61
2023/10/23 07:10:07;;;;;;;11.25;7.57;;;6.50;99.90;;;;;;5012983;28;20095;-61
2023/10/23 07:12:32;;;;;;;12.52;8.02;;;6.50;99.90;;;;;;5040211;28;20417;-61
2023/10/23 07:14:58;;;;;;;12.32;8.18;;;6.50;99.90;;;;;;5014989;28;20037;-61
2023/10/23 07:17:24;;;;;;;11.75;8.35;;;6.50;99.90;;;;;;5025481;28;20083;-61
2023/10/23 07:19:50;;;;;;;10.52;7.65;;;6.60;99.90;;;;;;5016978;28;20045;-61
2023/10/23 07:22:17;;;;;;;10.02;7.57;;;6.60;99.90;;;;;;5039590;28;20056;-61
2023/10/23 07:24:42;;;;;;;11.27;7.68;;;6.60;99.90;;;;;;5023114;28;20041;-62
2023/10/23 07:27:11;;;;;;;11.13;7.97;;;6.70;99.90;;;;;;5014820;28;20428;-62
2023/10/23 07:29:37;;;;;;;11.40;7.70;;;6.70;99.90;;;;;;5021970;28;20047;-61
2023/10/23 08:11:08;;;;;;;20.88;14.27;;;7.80;99.90;;;;;;5034796;28;20275;-61
2023/10/23 08:13:34;;;;;;;19.48;12.60;;;7.90;99.90;;;;;;5018586;28;20056;-61
2023/10/23 08:16:00;;;;;;;18.30;11.27;;;8.00;99.90;;;;;;5032777;28;20040;-59
2023/10/23 08:18:26;;;;;;;15.65;10.48;;;8.10;99.90;;;;;;5015139;28;20079;-58
2023/10/23 08:20:51;;;;;;;14.10;10.80;;;8.10;99.90;;;;;;5027365;28;20386;-58
2023/10/23 08:23:17;;;;;;;15.23;11.88;;;8.20;99.90;;;;;;5026324;28;20053;-58
2023/10/23 08:25:44;;;;;;;19.52;12.85;;;8.40;99.90;;;;;;5032074;28;20478;-58
2023/10/23 08:28:10;;;;;;;15.50;11.05;;;8.40;99.90;;;;;;5014577;28;20053;-58
2023/10/23 08:30:36;;;;;;;11.63;8.75;;;8.50;99.90;;;;;;5016171;28;20080;-58
2023/10/23 08:33:04;;;;;;;14.20;9.95;;;8.60;99.90;;;;;;5028093;28;20398;-58
2023/10/23 08:35:30;;;;;;;16.15;12.20;;;8.70;99.90;;;;;;5046099;28;20600;-58
2023/10/23 08:37:55;;;;;;;14.43;8.90;;;8.80;99.90;;;;;;5018848;28;20124;-58
2023/10/23 08:40:24;;;;;;;15.35;10.75;;;8.90;99.90;;;;;;5013499;28;20052;-58
2023/10/23 08:42:50;;;;;;;15.10;10.70;;;8.90;99.90;;;;;;5019533;28;20044;-58
2023/10/23 08:45:16;;;;;;;14.18;10.60;;;9.10;99.90;;;;;;5003684;28;20044;-58
2023/10/23 08:47:43;;;;;;;16.75;14.50;;;9.20;99.90;;;;;;5014169;28;20120;-57
2023/10/23 08:50:09;;;;;;;16.52;12.93;;;9.20;99.90;;;;;;5010988;28;20041;-58
2023/10/23 08:52:46;;;;;;;15.98;9.88;;;9.30;99.90;;;;;;5032141;28;20041;-59
2023/10/23 08:55:16;;;;;;;18.48;10.77;;;9.30;99.90;;;;;;5033029;28;20061;-58
2023/10/23 08:57:48;;;;;;;16.17;9.73;;;9.40;99.90;;;;;;5027825;28;20061;-58
2023/10/23 09:00:14;;;;;;;13.35;9.63;;;9.50;99.90;;;;;;5032885;28;20041;-60
2023/10/23 09:02:39;;;;;;;12.13;8.98;;;9.60;99.90;;;;;;5049360;28;20052;-61
2023/10/23 09:05:05;;;;;;;13.02;8.13;;;9.60;99.90;;;;;;5027811;28;20045;-60
2023/10/23 09:07:32;;;;;;;13.65;8.32;;;9.70;99.90;;;;;;5042668;28;20037;-58
2023/10/23 09:10:03;;;;;;;14.25;8.15;;;9.80;99.90;;;;;;5042085;28;20045;-58
2023/10/23 09:12:34;;;;;;;12.73;7.47;;;9.80;99.90;;;;;;5032237;28;20057;-58
2023/10/23 09:15:12;;;;;;;11.13;7.88;;;10.00;99.90;;;;;;5014461;28;20433;-58
2023/10/23 09:17:38;;;;;;;11.13;7.20;;;10.20;99.90;;;;;;4997349;28;20037;-58
2023/10/23 09:20:33;;;;;;;9.77;7.10;;;10.30;99.90;;;;;;5013940;28;20048;-58
2023/10/23 09:22:59;;;;;;;10.57;6.90;;;10.30;99.90;;;;;;4998461;28;20053;-58
2023/10/23 09:25:25;;;;;;;11.00;6.95;;;10.40;99.90;;;;;;4980345;28;20045;-59
2023/10/23 09:27:51;;;;;;;10.77;6.18;;;10.50;99.90;;;;;;4996680;28;20041;-58
2023/10/23 09:30:21;;;;;;;14.60;7.88;;;10.70;99.90;;;;;;5028417;28;20054;-58
2023/10/23 09:32:53;;;;;;;13.60;9.38;;;10.70;99.90;;;;;;5010333;28;20048;-58
2023/10/23 09:35:20;;;;;;;13.38;8.50;;;10.70;99.90;;;;;;5012861;28;20034;-58
2023/10/23 09:37:46;;;;;;;22.23;13.88;;;10.80;99.90;;;;;;5012445;28;20046;-58
2023/10/23 09:40:12;;;;;;;21.73;13.95;;;10.90;99.90;;;;;;4994768;28;20046;-58
2023/10/23 09:42:39;;;;;;;23.77;17.80;;;11.00;99.90;;;;;;5027377;28;20034;-58
2023/10/23 09:45:05;;;;;;;17.98;12.55;;;11.20;99.90;;;;;;5028203;28;20069;-59
2023/10/23 09:47:32;;;;;;;11.82;7.72;;;11.30;99.90;;;;;;5026792;28;20077;-58
2023/10/23 09:49:58;;;;;;;16.15;11.10;;;11.30;99.90;;;;;;5028088;28;20124;-58
2023/10/23 09:52:26;;;;;;;13.90;9.50;;;11.40;99.90;;;;;;5011684;28;20402;-59
2023/10/23 09:55:03;;;;;;;9.38;6.38;;;11.40;99.90;;;;;;4994066;28;20053;-59
2023/10/23 09:57:44;;;;;;;11.25;6.05;;;11.40;99.90;;;;;;5027398;28;20045;-58
2023/10/23 10:00:14;;;;;;;12.27;6.35;;;11.50;99.90;;;;;;5027779;28;20042;-58
2023/10/23 10:03:11;;;;;;;11.00;5.30;;;11.60;99.90;;;;;;4977749;28;20455;-58
2023/10/23 10:05:58;;;;;;;9.13;6.65;;;11.70;99.90;;;;;;4982822;28;20565;-59
2023/10/23 10:08:26;;;;;;;11.90;8.90;;;11.70;99.90;;;;;;5026778;28;20392;-59
2023/10/23 10:10:55;;;;;;;6.72;4.38;;;11.80;99.90;;;;;;5014985;28;20403;-59
2023/10/23 10:13:21;;;;;;;11.80;5.45;;;11.90;99.90;;;;;;5014445;28;20053;-59
2023/10/23 10:15:49;;;;;;;9.65;5.50;;;11.90;99.90;;;;;;5030785;28;20041;-59
2023/10/23 10:18:16;;;;;;;10.07;6.53;;;12.00;99.90;;;;;;5014587;28;20055;-58
2023/10/23 10:20:47;;;;;;;11.18;7.97;;;12.10;99.90;;;;;;5013779;28;20506;-59
2023/10/23 10:23:15;;;;;;;9.98;6.57;;;12.10;99.90;;;;;;5031216;28;20091;-59
2023/10/23 10:25:43;;;;;;;10.02;6.88;;;12.20;99.90;;;;;;5013765;28;20046;-59
2023/10/23 10:28:09;;;;;;;10.13;8.15;;;12.20;99.90;;;;;;5032191;28;20049;-59
2023/10/23 10:30:50;;;;;;;14.20;8.07;;;12.30;99.90;;;;;;5029553;28;20060;-59
2023/10/23 10:33:20;;;;;;;7.07;4.85;;;12.40;99.90;;;;;;5014412;28;20041;-59
2023/10/23 10:36:00;;;;;;;7.38;4.30;;;12.50;99.90;;;;;;4996715;28;20045;-59
2023/10/23 10:38:29;;;;;;;10.77;5.53;;;12.50;99.90;;;;;;5013615;28;20041;-59
2023/10/23 10:41:00;;;;;;;9.95;5.88;;;12.60;99.90;;;;;;5031799;28;20077;-59
2023/10/23 10:43:39;;;;;;;9.88;4.97;;;12.60;99.90;;;;;;5030749;28;20048;-59
2023/10/23 10:46:19;;;;;;;9.05;4.90;;;12.60;99.90;;;;;;5047261;28;20045;-59
2023/10/23 10:48:46;;;;;;;9.38;4.70;;;12.70;99.90;;;;;;5013729;28;20053;-58
2023/10/23 10:51:31;;;;;;;6.18;3.67;;;12.80;99.90;;;;;;5013350;28;20045;-59
2023/10/23 10:54:00;;;;;;;6.25;3.67;;;12.90;99.90;;;;;;5013942;28;20077;-59
2023/10/23 10:56:26;;;;;;;5.57;2.92;;;12.90;99.90;;;;;;5046773;28;20116;-60
2023/10/23 10:58:52;;;;;;;20.48;11.48;;;12.90;99.90;;;;;;5029928;28;20595;-59
2023/10/23 11:01:22;;;;;;;13.48;7.65;;;13.00;99.90;;;;;;5031765;28;20065;-59
2023/10/23 11:03:48;;;;;;;8.07;4.72;;;13.00;99.90;;;;;;5015566;28;20045;-59
2023/10/23 11:06:14;;;;;;;11.43;5.93;;;13.10;99.90;;;;;;5051152;28;20047;-59
2023/10/23 11:08:40;;;;;;;12.07;10.25;;;13.10;99.90;;;;;;5017069;28;20046;-59
2023/10/23 11:11:06;;;;;;;8.52;5.82;;;13.10;99.90;;;;;;5016765;28;20065;-60
2023/10/23 11:13:35;;;;;;;7.82;6.05;;;13.10;99.90;;;;;;5016932;28;20049;-59
2023/10/23 11:16:01;;;;;;;7.72;3.78;;;13.10;99.90;;;;;;5050541;28;20171;-59
2023/10/23 11:18:30;;;;;;;6.53;3.35;;;13.10;99.90;;;;;;5016328;28;20033;-59
2023/10/23 11:21:00;;;;;;;5.13;1.95;;;13.20;99.90;;;;;;5034132;28;20124;-59
2023/10/23 11:23:28;;;;;;;5.43;2.10;;;13.30;99.90;;;;;;5017238;28;20056;-59
2023/10/23 11:25:54;;;;;;;7.25;1.98;;;13.30;99.90;;;;;;5016310;28;20049;-59
2023/10/23 11:28:21;;;;;;;4.60;1.98;;;13.30;99.90;;;;;;5033971;28;20045;-60
2023/10/23 11:30:49;;;;;;;3.50;1.50;;;13.40;99.90;;;;;;5016969;28;20045;-59
2023/10/23 11:33:18;;;;;;;4.78;1.83;;;13.50;99.90;;;;;;5016512;28;20038;-59
2023/10/23 11:35:43;;;;;;;3.65;1.50;;;13.50;99.90;;;;;;5016865;28;20557;-59
2023/10/23 11:38:14;;;;;;;3.50;1.52;;;13.50;99.90;;;;;;5017111;28;20069;-60
2023/10/23 11:40:44;;;;;;;4.00;1.10;;;13.50;99.90;;;;;;5015850;28;20117;-59
2023/10/23 11:43:11;;;;;;;3.38;1.50;;;13.50;99.90;;;;;;5017156;28;20053;-59
2023/10/23 11:45:39;;;;;;;10.27;3.40;;;13.50;99.90;;;;;;5016602;28;20046;-59
2023/10/23 11:48:05;;;;;;;15.57;8.73;;;13.50;99.90;;;;;;5016381;28;20061;-59
2023/10/23 11:50:32;;;;;;;73.13;41.20;;;13.50;99.90;;;;;;5034336;28;20041;-60
2023/10/23 11:52:58;;;;;;;10.23;5.32;;;13.50;99.90;;;;;;5032306;28;20057;-59
2023/10/23 11:55:25;;;;;;;10.52;5.95;;;13.50;99.90;;;;;;5049711;28;20052;-60
2023/10/23 11:57:51;;;;;;;8.40;5.13;;;13.50;99.90;;;;;;5016710;28;20041;-59
2023/10/23 12:00:19;;;;;;;8.80;3.58;;;13.50;99.90;;;;;;5015958;28;20072;-59
2023/10/23 12:02:46;;;;;;;5.97;2.35;;;13.50;99.90;;;;;;5016054;28;20038;-59
2023/10/23 12:05:15;;;;;;;6.15;3.72;;;13.60;99.90;;;;;;5034305;28;20041;-60
2023/10/23 12:07:46;;;;;;;4.38;2.25;;;13.60;99.90;;;;;;5032848;28;20394;-59
2023/10/23 12:10:13;;;;;;;3.72;1.70;;;13.60;99.90;;;;;;5016600;28;20112;-59
2023/10/23 12:12:40;;;;;;;4.63;1.85;;;13.60;99.90;;;;;;5033404;28;20053;-59
2023/10/23 12:15:07;;;;;;;5.35;1.75;;;13.60;99.90;;;;;;5014776;28;20164;-59
2023/10/23 12:17:33;;;;;;;4.22;2.55;;;13.60;99.90;;;;;;5016296;28;20047;-59
2023/10/23 12:19:59;;;;;;;3.88;1.30;;;13.60;99.90;;;;;;5016218;28;20041;-59
2023/10/23 12:22:24;;;;;;;2.92;1.40;;;13.60;99.90;;;;;;5032925;28;20061;-59
2023/10/23 12:24:50;;;;;;;2.45;1.15;;;13.60;99.90;;;;;;5033917;28;20542;-59
2023/10/23 12:27:16;;;;;;;4.75;1.42;;;13.60;99.90;;;;;;4999914;28;20076;-59
2023/10/23 12:29:41;;;;;;;3.38;1.20;;;13.70;99.90;;;;;;5032609;28;20073;-60
2023/10/23 12:32:07;;;;;;;3.55;1.42;;;13.60;99.90;;;;;;4999866;28;20127;-59
2023/10/23 12:34:35;;;;;;;3.65;1.27;;;13.60;99.90;;;;;;5015181;28;20084;-59
2023/10/23 12:37:01;;;;;;;3.80;1.27;;;13.70;99.90;;;;;;5033088;28;20087;-59
2023/10/23 12:39:27;;;;;;;3.17;1.00;;;13.60;99.90;;;;;;5048694;28;20421;-59
2023/10/23 12:41:52;;;;;;;5.50;1.30;;;13.60;99.90;;;;;;5015853;28;20036;-59
2023/10/23 12:44:18;;;;;;;2.30;0.98;;;13.60;99.90;;;;;;5015152;28;20434;-59
2023/10/23 12:46:43;;;;;;;5.70;1.38;;;13.60;99.90;;;;;;5015411;28;20068;-59
2023/10/23 12:49:09;;;;;;;4.43;1.40;;;13.60;99.90;;;;;;5015323;28;20045;-59
2023/10/23 12:51:35;;;;;;;2.90;0.90;;;13.60;99.90;;;;;;5014673;28;20050;-59
2023/10/23 12:54:00;;;;;;;3.17;1.08;;;13.70;99.90;;;;;;5015691;28;20434;-59
2023/10/23 12:56:27;;;;;;;4.38;1.20;;;13.70;99.90;;;;;;5032302;28;20117;-59
2023/10/23 12:58:52;;;;;;;3.40;1.25;;;13.70;99.90;;;;;;5015523;28;20073;-59
2023/10/23 13:01:18;;;;;;;3.28;1.20;;;13.60;99.90;;;;;;5015609;28;20072;-59
2023/10/23 13:03:43;;;;;;;3.25;1.27;;;13.60;99.90;;;;;;4997623;28;20057;-59
2023/10/23 13:06:09;;;;;;;5.75;1.25;;;13.60;99.90;;;;;;5015703;28;20049;-59
2023/10/23 13:08:35;;;;;;;6.95;1.90;;;13.60;99.90;;;;;;5014895;28;20506;-59
2023/10/23 13:11:01;;;;;;;6.47;1.60;;;13.60;99.90;;;;;;5014485;28;20064;-59
2023/10/23 13:13:28;;;;;;;7.03;1.98;;;13.60;99.90;;;;;;5032701;28;20077;-59
2023/10/23 13:15:53;;;;;;;5.75;2.38;;;13.60;99.90;;;;;;5032866;28;20402;-59
2023/10/23 13:18:19;;;;;;;9.07;4.70;;;13.60;99.90;;;;;;5032017;28;20033;-59
2023/10/23 13:20:45;;;;;;;7.63;2.90;;;13.60;99.90;;;;;;5031302;28;20045;-59
2023/10/23 13:23:10;;;;;;;3.63;1.67;;;13.60;99.90;;;;;;5015259;28;20556;-59
2023/10/23 13:25:37;;;;;;;4.57;1.67;;;13.60;99.90;;;;;;5046960;28;20078;-59